Time;durP1;ratioP1;P1;durP2;ratioP2;P2;SDS_P1;SDS_P2;PMS_P1;PMS_P2;Temp;Humidity;BMP_temperature;BMP_pressure;BME280_temperature;BME280_humidity;BME280_pressure;Samples;Min_cycle;Max_cycle;Signal;HPM_P1;HPM_P2
2021/12/30 00:01:48;;;;;;;13.82;9.77;;;28.10;85.00;;;;;;5063706;28;20032;-49
2021/12/30 00:04:15;;;;;;;22.77;13.30;;;28.00;84.90;;;;;;5064016;28;20029;-53
2021/12/30 00:06:42;;;;;;;18.20;11.23;;;28.10;85.00;;;;;;5063599;28;20013;-43
2021/12/30 00:09:11;;;;;;;12.38;9.90;;;28.00;84.90;;;;;;5063789;28;20021;-48
2021/12/30 00:11:38;;;;;;;15.18;8.93;;;28.00;85.00;;;;;;5061393;28;20021;-47
2021/12/30 00:14:05;;;;;;;18.35;9.00;;;28.00;84.90;;;;;;5056350;28;20085;-45
2021/12/30 00:16:32;;;;;;;13.38;8.48;;;28.00;84.90;;;;;;5034709;28;20029;-49
2021/12/30 00:18:59;;;;;;;14.02;8.50;;;28.00;85.10;;;;;;5043947;28;20060;-45
2021/12/30 00:21:25;;;;;;;10.50;8.43;;;28.00;84.90;;;;;;5043905;28;20048;-42
2021/12/30 00:23:52;;;;;;;16.40;9.52;;;27.90;85.10;;;;;;5043662;28;20057;-44
2021/12/30 00:26:20;;;;;;;12.45;8.80;;;27.90;85.30;;;;;;5043836;28;20013;-50
2021/12/30 00:28:47;;;;;;;13.13;8.15;;;27.90;85.20;;;;;;5043929;28;20316;-50
2021/12/30 00:31:15;;;;;;;15.35;8.50;;;27.90;85.00;;;;;;5043412;28;20246;-44
2021/12/30 00:33:42;;;;;;;11.70;8.13;;;27.90;84.70;;;;;;5043874;28;20033;-44
2021/12/30 00:36:11;;;;;;;15.27;9.43;;;27.90;84.80;;;;;;5043703;28;20017;-44
2021/12/30 00:38:41;;;;;;;14.65;10.27;;;27.90;84.90;;;;;;5030222;28;20029;-49
2021/12/30 00:41:09;;;;;;;47.53;29.92;;;27.90;85.10;;;;;;5057477;28;20306;-51
2021/12/30 00:43:37;;;;;;;31.25;18.38;;;27.90;85.20;;;;;;5047315;28;20092;-52
2021/12/30 00:46:06;;;;;;;31.52;19.92;;;27.80;85.10;;;;;;5047380;28;20020;-45
2021/12/30 00:48:34;;;;;;;31.30;21.38;;;27.80;85.00;;;;;;5047346;28;20041;-45
2021/12/30 00:51:01;;;;;;;30.85;18.80;;;27.80;84.90;;;;;;5047338;28;20347;-44
2021/12/30 00:53:27;;;;;;;28.80;19.45;;;27.80;84.90;;;;;;5047280;28;20107;-44
2021/12/30 00:55:54;;;;;;;25.20;13.85;;;27.80;84.90;;;;;;5047192;28;20022;-43
2021/12/30 00:58:21;;;;;;;24.17;13.63;;;27.80;84.70;;;;;;5047297;28;20029;-46
2021/12/30 01:00:48;;;;;;;21.48;12.95;;;27.80;84.90;;;;;;5047170;28;20039;-47
2021/12/30 01:03:16;;;;;;;27.30;12.30;;;27.80;85.00;;;;;;5046921;28;20035;-43
2021/12/30 01:05:44;;;;;;;21.55;11.35;;;27.80;84.80;;;;;;5047106;28;20153;-42
2021/12/30 01:08:11;;;;;;;23.40;11.57;;;27.80;84.60;;;;;;5060553;28;20037;-51
2021/12/30 01:10:39;;;;;;;22.90;10.90;;;27.80;84.40;;;;;;5056647;28;20086;-45
2021/12/30 01:13:14;;;;;;;27.73;10.43;;;27.70;84.40;;;;;;5066402;28;20021;-46
2021/12/30 01:16:00;;;;;;;19.80;9.95;;;27.70;84.40;;;;;;5059653;28;20032;-53
2021/12/30 01:21:00;;;;;;;18.35;9.43;;;27.70;84.70;;;;;;5066874;28;20009;-46
2021/12/30 01:23:27;;;;;;;19.58;9.85;;;27.70;84.70;;;;;;5059478;28;20017;-44
2021/12/30 01:25:55;;;;;;;13.75;9.57;;;27.70;84.70;;;;;;5060062;28;20013;-60
2021/12/30 01:28:23;;;;;;;19.25;10.57;;;27.70;84.70;;;;;;5063861;28;20033;-46
2021/12/30 01:30:50;;;;;;;17.35;10.07;;;27.60;84.80;;;;;;5060193;28;20139;-53
2021/12/30 01:33:18;;;;;;;22.70;10.05;;;27.60;84.80;;;;;;5063575;28;20036;-50
2021/12/30 01:35:44;;;;;;;18.60;9.65;;;27.70;84.80;;;;;;5054424;28;20029;-54
2021/12/30 01:38:15;;;;;;;19.63;9.38;;;27.70;84.80;;;;;;5062227;28;20036;-49
2021/12/30 01:40:44;;;;;;;18.48;9.02;;;27.70;84.90;;;;;;5060252;28;20020;-50
2021/12/30 01:43:11;;;;;;;23.17;9.27;;;27.60;84.70;;;;;;5058632;28;20031;-54
2021/12/30 01:45:39;;;;;;;24.50;9.32;;;27.60;84.80;;;;;;5066209;28;20017;-56
2021/12/30 01:48:06;;;;;;;24.17;11.55;;;27.60;84.90;;;;;;5055685;28;20116;-49
2021/12/30 01:50:33;;;;;;;26.15;10.65;;;27.60;85.30;;;;;;5066039;28;20029;-49
2021/12/30 01:53:00;;;;;;;16.67;9.70;;;27.50;85.30;;;;;;5065425;28;20020;-47
2021/12/30 01:55:27;;;;;;;17.50;9.52;;;27.50;85.40;;;;;;5065911;28;20070;-45
2021/12/30 01:57:53;;;;;;;24.38;10.00;;;27.50;85.60;;;;;;5065772;28;20021;-47
2021/12/30 02:00:24;;;;;;;26.05;10.48;;;27.50;85.70;;;;;;5065860;28;20326;-44
2021/12/30 02:02:51;;;;;;;18.67;9.70;;;27.50;86.10;;;;;;5062130;28;20017;-46
2021/12/30 02:05:18;;;;;;;22.20;9.73;;;27.50;85.50;;;;;;5058469;28;20306;-45
2021/12/30 02:07:45;;;;;;;18.83;9.63;;;27.50;85.40;;;;;;5066364;28;20017;-44
2021/12/30 02:10:13;;;;;;;26.48;10.13;;;27.60;85.30;;;;;;5066723;28;20025;-47
2021/12/30 02:12:41;;;;;;;23.98;10.88;;;27.60;85.20;;;;;;5066254;28;20051;-47
2021/12/30 02:15:14;;;;;;;22.63;10.48;;;27.60;85.00;;;;;;5066705;28;20031;-48
2021/12/30 02:17:41;;;;;;;20.67;10.30;;;27.60;84.80;;;;;;5065618;28;20020;-44
2021/12/30 02:20:12;;;;;;;15.05;9.90;;;27.60;84.80;;;;;;5066506;28;20029;-55
2021/12/30 02:22:39;;;;;;;17.95;11.77;;;27.60;84.60;;;;;;5066058;28;20021;-47
2021/12/30 02:25:06;;;;;;;19.13;13.07;;;27.60;84.50;;;;;;5066399;28;20040;-47
2021/12/30 02:27:33;;;;;;;17.45;13.88;;;27.60;84.40;;;;;;5066063;28;20020;-50
2021/12/30 02:29:59;;;;;;;17.45;14.82;;;27.60;84.20;;;;;;5066128;28;20041;-48
2021/12/30 02:32:26;;;;;;;20.08;14.63;;;27.60;84.10;;;;;;5065879;28;20017;-41
2021/12/30 02:34:53;;;;;;;19.67;14.77;;;27.60;84.00;;;;;;5064632;28;20025;-47
2021/12/30 02:37:20;;;;;;;18.48;13.43;;;27.60;83.80;;;;;;5063332;28;20032;-48
2021/12/30 02:39:54;;;;;;;17.67;11.70;;;27.60;83.60;;;;;;5054300;28;20026;-49
2021/12/30 02:42:23;;;;;;;13.45;10.63;;;27.60;83.40;;;;;;5054778;28;20032;-46
2021/12/30 02:44:50;;;;;;;14.80;10.18;;;27.60;83.20;;;;;;5052099;28;20041;-50
2021/12/30 02:47:17;;;;;;;14.68;9.80;;;27.60;83.60;;;;;;5061667;28;20055;-44
2021/12/30 02:49:44;;;;;;;14.25;8.90;;;27.50;82.70;;;;;;5060238;28;20018;-48
2021/12/30 02:52:10;;;;;;;10.20;8.48;;;27.50;82.50;;;;;;5059047;28;20041;-49
2021/12/30 02:54:40;;;;;;;11.50;8.40;;;27.50;82.30;;;;;;5060701;28;20033;-54
2021/12/30 02:57:06;;;;;;;9.73;8.60;;;27.50;82.10;;;;;;5064433;28;20032;-44
2021/12/30 02:59:33;;;;;;;15.13;11.50;;;27.50;81.90;;;;;;5056556;28;20166;-47
2021/12/30 03:01:59;;;;;;;15.85;11.57;;;27.50;81.70;;;;;;5059383;28;20021;-49
2021/12/30 03:04:26;;;;;;;15.93;10.27;;;27.50;81.40;;;;;;5064336;28;20032;-51
2021/12/30 03:06:53;;;;;;;13.68;10.73;;;27.50;81.30;;;;;;5064869;28;20008;-49
2021/12/30 03:09:20;;;;;;;16.10;12.70;;;27.50;81.10;;;;;;5065064;28;20040;-51
2021/12/30 03:11:46;;;;;;;18.05;13.20;;;27.50;80.80;;;;;;5064778;28;20048;-49
2021/12/30 03:14:13;;;;;;;14.93;11.00;;;27.50;80.60;;;;;;5060966;28;20039;-51
2021/12/30 03:16:42;;;;;;;15.25;10.68;;;27.50;80.30;;;;;;5051795;28;20037;-52
2021/12/30 03:19:09;;;;;;;12.52;9.35;;;27.50;79.80;;;;;;5053054;28;20188;-51
2021/12/30 03:21:36;;;;;;;11.98;8.35;;;27.50;79.80;;;;;;5044740;28;20100;-49
2021/12/30 03:24:05;;;;;;;14.15;7.35;;;27.50;79.50;;;;;;5045045;28;20052;-50
2021/12/30 03:26:32;;;;;;;10.48;7.50;;;27.50;79.10;;;;;;5044813;28;20022;-42
2021/12/30 03:28:59;;;;;;;8.38;7.47;;;27.40;78.90;;;;;;5044867;28;20247;-43
2021/12/30 03:31:26;;;;;;;8.25;7.10;;;27.40;78.90;;;;;;5052507;28;20087;-42
2021/12/30 03:33:52;;;;;;;8.15;6.75;;;27.40;78.60;;;;;;5054441;28;20033;-52
2021/12/30 03:36:20;;;;;;;7.00;5.95;;;27.40;78.50;;;;;;5047586;28;20047;-51
2021/12/30 03:38:53;;;;;;;8.38;6.70;;;27.40;78.40;;;;;;5045644;28;20059;-46
2021/12/30 03:41:22;;;;;;;14.85;7.03;;;27.40;78.30;;;;;;5052801;28;20048;-49
2021/12/30 03:43:49;;;;;;;12.73;6.88;;;27.40;78.10;;;;;;5044548;28;20025;-50
2021/12/30 03:46:17;;;;;;;12.23;6.65;;;27.40;78.10;;;;;;5055426;28;20018;-55
2021/12/30 03:48:44;;;;;;;9.45;6.57;;;27.40;78.00;;;;;;5044648;28;20036;-47
2021/12/30 03:51:24;;;;;;;10.55;6.05;;;27.30;77.60;;;;;;5055537;28;20201;-45
2021/12/30 03:53:56;;;;;;;7.40;6.05;;;27.30;77.60;;;;;;5064423;28;20407;-49
2021/12/30 03:56:28;;;;;;;;;;;27.30;77.50;;;;;;5063737;28;20067;-46
2021/12/30 03:58:55;;;;;;;9.43;6.22;;;27.30;77.30;;;;;;5064144;28;19909;-49
2021/12/30 04:01:24;;;;;;;6.22;5.57;;;27.30;77.50;;;;;;5063980;28;20056;-49
2021/12/30 04:03:51;;;;;;;10.57;5.78;;;27.30;77.50;;;;;;5063867;28;20032;-45
2021/12/30 04:06:19;;;;;;;9.15;5.65;;;27.30;77.20;;;;;;5063935;28;20072;-51
2021/12/30 04:08:46;;;;;;;7.03;5.20;;;27.30;77.00;;;;;;5064076;28;20290;-45
2021/12/30 04:11:13;;;;;;;5.93;5.32;;;27.30;76.80;;;;;;5063730;28;20020;-47
2021/12/30 04:13:40;;;;;;;8.25;5.25;;;27.30;77.00;;;;;;5063914;28;20329;-49
2021/12/30 04:16:06;;;;;;;7.50;5.30;;;27.30;76.90;;;;;;5063440;28;20093;-49
2021/12/30 04:18:33;;;;;;;6.20;5.35;;;27.30;77.00;;;;;;5063687;28;20025;-47
2021/12/30 04:21:00;;;;;;;9.27;5.57;;;27.20;77.30;;;;;;5063675;28;20045;-52
2021/12/30 04:23:27;;;;;;;10.88;6.57;;;27.20;77.40;;;;;;5063662;28;20033;-48
2021/12/30 04:25:53;;;;;;;11.98;6.32;;;27.20;77.40;;;;;;5063587;28;20209;-52
2021/12/30 04:28:20;;;;;;;8.65;6.10;;;27.20;77.50;;;;;;5063801;28;20088;-49
2021/12/30 04:30:46;;;;;;;11.68;6.63;;;27.20;77.70;;;;;;5063511;28;20045;-45
2021/12/30 04:33:13;;;;;;;10.48;6.28;;;27.20;77.90;;;;;;5063511;28;20032;-43
2021/12/30 04:35:40;;;;;;;12.70;6.53;;;27.20;78.10;;;;;;5063612;28;20217;-53
2021/12/30 04:38:06;;;;;;;12.52;7.03;;;27.20;78.20;;;;;;5063580;28;20067;-47
2021/12/30 04:40:33;;;;;;;11.38;6.55;;;27.20;78.40;;;;;;5063436;28;20024;-51
2021/12/30 04:42:59;;;;;;;10.55;6.65;;;27.10;78.50;;;;;;5063511;28;20106;-48
2021/12/30 04:45:28;;;;;;;11.95;7.28;;;27.10;78.70;;;;;;5063395;28;20321;-49
2021/12/30 04:47:55;;;;;;;10.95;6.65;;;27.10;78.90;;;;;;5063274;28;20070;-51
2021/12/30 04:50:22;;;;;;;9.45;6.43;;;27.10;79.10;;;;;;5063377;28;20021;-45
2021/12/30 04:52:48;;;;;;;9.35;6.80;;;27.10;79.30;;;;;;5063450;28;20036;-49
2021/12/30 04:55:15;;;;;;;11.55;7.22;;;27.10;79.50;;;;;;5063886;28;20029;-46
2021/12/30 04:57:41;;;;;;;9.90;6.40;;;27.10;79.70;;;;;;5063309;28;20341;-50
2021/12/30 05:00:10;;;;;;;11.25;6.88;;;27.10;79.80;;;;;;5062442;28;20031;-42
2021/12/30 05:05:23;;;;;;;12.88;7.40;;;27.10;80.20;;;;;;5063274;28;20340;-48
2021/12/30 05:07:49;;;;;;;16.95;6.70;;;27.00;80.40;;;;;;5063224;28;20021;-47
2021/12/30 05:10:16;;;;;;;14.48;7.32;;;27.00;80.60;;;;;;5062592;28;20240;-45
2021/12/30 05:12:42;;;;;;;16.20;7.20;;;27.00;80.80;;;;;;5063277;28;20306;-49
2021/12/30 05:15:09;;;;;;;10.50;6.63;;;27.00;80.80;;;;;;5063716;28;20040;-47
2021/12/30 05:17:36;;;;;;;12.68;6.90;;;27.00;80.90;;;;;;5062991;28;20025;-46
2021/12/30 05:20:04;;;;;;;11.65;7.38;;;27.00;81.00;;;;;;5063591;28;20032;-46
2021/12/30 05:22:30;;;;;;;10.05;7.20;;;27.00;81.20;;;;;;5063118;28;20021;-46
2021/12/30 05:24:57;;;;;;;12.68;7.60;;;27.00;81.30;;;;;;5063312;28;20199;-55
2021/12/30 05:27:23;;;;;;;15.40;7.53;;;26.90;81.40;;;;;;5064843;28;20020;-49
2021/12/30 05:29:50;;;;;;;15.57;7.38;;;26.90;81.50;;;;;;5066895;28;20059;-44
2021/12/30 05:32:16;;;;;;;13.00;7.30;;;26.90;81.70;;;;;;5066562;28;20089;-45
2021/12/30 05:34:43;;;;;;;12.02;7.68;;;26.90;81.80;;;;;;5067067;28;20084;-48
2021/12/30 05:37:09;;;;;;;12.60;7.78;;;26.90;81.90;;;;;;5066699;28;20123;-49
2021/12/30 05:39:40;;;;;;;11.00;7.10;;;26.90;81.90;;;;;;5066778;28;20059;-44
2021/12/30 05:42:07;;;;;;;10.32;6.60;;;26.90;82.00;;;;;;5065936;28;20020;-45
2021/12/30 05:44:34;;;;;;;8.18;6.47;;;26.90;82.30;;;;;;5066660;28;20100;-44
2021/12/30 05:47:01;;;;;;;13.10;6.78;;;26.90;81.40;;;;;;5066301;28;20361;-47
2021/12/30 05:49:27;;;;;;;12.60;6.20;;;26.90;81.10;;;;;;5066581;28;20071;-55
2021/12/30 05:51:54;;;;;;;8.98;6.00;;;26.90;80.60;;;;;;5066380;28;20070;-52
2021/12/30 05:54:20;;;;;;;9.25;6.18;;;26.80;80.90;;;;;;5066444;28;20095;-46
2021/12/30 05:56:47;;;;;;;6.43;5.57;;;26.80;80.20;;;;;;5066269;28;20024;-51
2021/12/30 05:59:13;;;;;;;7.93;5.93;;;26.90;80.00;;;;;;5066426;28;20066;-46
2021/12/30 06:01:40;;;;;;;8.65;5.50;;;26.80;79.50;;;;;;5066095;28;20244;-43
2021/12/30 06:04:06;;;;;;;8.82;5.20;;;26.80;79.20;;;;;;5066213;28;20079;-51
2021/12/30 06:06:33;;;;;;;7.63;5.45;;;26.80;79.10;;;;;;5066057;28;20020;-43
2021/12/30 06:08:59;;;;;;;8.32;5.22;;;26.80;78.70;;;;;;5066043;28;20308;-51
2021/12/30 06:11:26;;;;;;;5.60;4.85;;;26.80;78.40;;;;;;5066077;28;20009;-48
2021/12/30 06:13:52;;;;;;;7.53;5.55;;;26.80;78.20;;;;;;5066112;28;20035;-47
2021/12/30 06:16:19;;;;;;;8.52;5.30;;;26.80;77.90;;;;;;5065656;28;20052;-48
2021/12/30 06:18:46;;;;;;;8.13;4.88;;;26.80;77.70;;;;;;5065997;28;20104;-46
2021/12/30 06:21:12;;;;;;;6.28;5.00;;;26.80;77.50;;;;;;5065757;28;20027;-50
2021/12/30 06:23:39;;;;;;;8.57;4.95;;;26.70;77.40;;;;;;5065862;28;20297;-44
2021/12/30 06:26:06;;;;;;;6.28;4.70;;;26.70;77.30;;;;;;5065571;28;20032;-48
2021/12/30 06:28:32;;;;;;;8.02;5.00;;;26.70;77.10;;;;;;5065743;28;20017;-54
2021/12/30 06:30:59;;;;;;;10.00;4.68;;;26.70;76.90;;;;;;5065331;28;20033;-44
2021/12/30 06:33:28;;;;;;;6.55;4.70;;;26.70;76.80;;;;;;5065423;28;20044;-47
2021/12/30 06:35:54;;;;;;;9.88;4.60;;;26.70;76.80;;;;;;5065485;28;20054;-52
2021/12/30 06:38:21;;;;;;;6.65;4.63;;;26.70;76.80;;;;;;5065500;28;20188;-45
2021/12/30 06:40:47;;;;;;;7.00;4.80;;;26.70;76.90;;;;;;5065306;28;20119;-49
2021/12/30 06:43:14;;;;;;;6.68;4.50;;;26.70;76.80;;;;;;5065430;28;20017;-47
2021/12/30 06:45:41;;;;;;;5.72;4.70;;;26.70;76.70;;;;;;5065256;28;20256;-51
2021/12/30 06:48:07;;;;;;;6.97;4.32;;;26.70;76.70;;;;;;5065074;28;20084;-51
2021/12/30 06:50:34;;;;;;;6.63;4.63;;;26.70;76.40;;;;;;5065218;28;20067;-43
2021/12/30 06:53:01;;;;;;;7.07;4.70;;;26.70;76.40;;;;;;5065130;28;20009;-45
2021/12/30 06:55:28;;;;;;;6.30;4.68;;;26.70;76.20;;;;;;5065004;28;20029;-44
2021/12/30 06:57:54;;;;;;;6.68;4.55;;;26.70;76.10;;;;;;5064895;28;20017;-45
2021/12/30 07:00:21;;;;;;;7.13;4.50;;;26.70;76.30;;;;;;5065006;28;20024;-56
2021/12/30 07:02:47;;;;;;;8.32;5.43;;;26.70;76.60;;;;;;5064826;28;20051;-47
2021/12/30 07:05:15;;;;;;;7.50;5.40;;;26.70;76.80;;;;;;5065329;28;20021;-45
2021/12/30 07:07:44;;;;;;;7.22;5.03;;;26.70;77.10;;;;;;5064827;28;20025;-50
2021/12/30 07:10:11;;;;;;;8.70;5.32;;;26.70;77.00;;;;;;5065195;28;20088;-45
2021/12/30 07:12:38;;;;;;;7.13;5.43;;;26.60;77.00;;;;;;5064858;28;20377;-46
2021/12/30 07:15:06;;;;;;;7.40;5.57;;;26.60;77.10;;;;;;5065249;28;20040;-49
2021/12/30 07:17:33;;;;;;;8.35;5.25;;;26.60;77.10;;;;;;5064387;28;20036;-43
2021/12/30 07:20:01;;;;;;;7.15;5.63;;;26.60;77.00;;;;;;5065051;28;20209;-47
2021/12/30 07:22:27;;;;;;;8.40;5.32;;;26.60;77.00;;;;;;5064692;28;20027;-53
2021/12/30 07:24:55;;;;;;;7.22;4.78;;;26.60;77.00;;;;;;5064800;28;20048;-52
2021/12/30 07:27:23;;;;;;;8.43;5.25;;;26.60;76.70;;;;;;5064483;28;20345;-45
2021/12/30 07:29:49;;;;;;;8.07;4.80;;;26.60;76.60;;;;;;5064649;28;20025;-50
2021/12/30 07:32:16;;;;;;;6.78;4.50;;;26.60;76.40;;;;;;5064313;28;20078;-48
2021/12/30 07:34:42;;;;;;;4.85;4.45;;;26.60;76.20;;;;;;5064810;28;20068;-52
2021/12/30 07:37:14;;;;;;;5.60;4.38;;;26.60;76.10;;;;;;5064316;28;20082;-47
2021/12/30 07:39:41;;;;;;;5.50;4.57;;;26.60;75.90;;;;;;5064502;28;20024;-52
2021/12/30 07:42:08;;;;;;;5.13;4.07;;;26.60;75.70;;;;;;5064345;28;20191;-47
2021/12/30 07:44:35;;;;;;;7.72;4.72;;;26.60;75.90;;;;;;5064533;28;20024;-43
2021/12/30 07:47:01;;;;;;;6.50;4.35;;;26.60;75.70;;;;;;5063985;28;20094;-47
2021/12/30 07:49:28;;;;;;;6.20;4.35;;;26.60;75.80;;;;;;5064064;28;20113;-45
2021/12/30 07:51:54;;;;;;;6.93;4.40;;;26.60;75.70;;;;;;5064130;28;20017;-45
2021/12/30 07:54:21;;;;;;;5.75;4.07;;;26.60;76.40;;;;;;5064291;28;20297;-48
2021/12/30 07:56:48;;;;;;;5.13;4.35;;;26.60;75.80;;;;;;5064127;28;20020;-47
2021/12/30 07:59:14;;;;;;;7.30;4.68;;;26.60;75.90;;;;;;5064260;28;20028;-49
2021/12/30 08:01:41;;;;;;;5.72;4.00;;;26.60;75.80;;;;;;5063913;28;20195;-44
2021/12/30 08:04:07;;;;;;;5.07;4.00;;;26.60;75.90;;;;;;5064090;28;20062;-46
2021/12/30 08:06:34;;;;;;;4.55;4.07;;;26.50;75.70;;;;;;5063962;28;20017;-47
2021/12/30 08:09:01;;;;;;;4.38;3.80;;;26.50;75.80;;;;;;5063891;28;20355;-42
2021/12/30 08:11:28;;;;;;;7.63;4.10;;;26.50;75.90;;;;;;5063827;28;20021;-50
2021/12/30 08:13:54;;;;;;;7.20;4.20;;;26.50;75.70;;;;;;5063899;28;20096;-51
2021/12/30 08:16:21;;;;;;;5.07;4.13;;;26.50;75.60;;;;;;5063707;28;20213;-49
2021/12/30 08:18:47;;;;;;;7.25;4.25;;;26.50;75.70;;;;;;5064004;28;20028;-46
2021/12/30 08:21:14;;;;;;;9.70;4.70;;;26.50;75.70;;;;;;5063762;28;20248;-49
2021/12/30 08:23:40;;;;;;;8.75;4.40;;;26.50;75.90;;;;;;5063744;28;20055;-43
2021/12/30 08:26:07;;;;;;;7.63;4.57;;;26.40;75.90;;;;;;5062917;28;20021;-52
2021/12/30 08:28:33;;;;;;;5.28;4.10;;;26.40;76.00;;;;;;5063769;28;20021;-42
2021/12/30 08:31:00;;;;;;;9.02;4.63;;;26.40;76.00;;;;;;5063497;28;20037;-49
2021/12/30 08:33:26;;;;;;;7.00;3.70;;;26.40;76.00;;;;;;5063671;28;20025;-56
2021/12/30 08:35:53;;;;;;;8.38;4.40;;;26.40;76.10;;;;;;5063600;28;20084;-46
2021/12/30 08:38:20;;;;;;;7.72;4.22;;;26.40;76.10;;;;;;5063658;28;20029;-45
2021/12/30 08:40:47;;;;;;;5.95;4.22;;;26.40;76.10;;;;;;5063464;28;20232;-47
2021/12/30 08:43:16;;;;;;;5.55;4.20;;;26.40;76.00;;;;;;5063510;28;20029;-43
2021/12/30 08:45:42;;;;;;;7.82;4.20;;;26.40;76.00;;;;;;5063410;28;20091;-48
2021/12/30 08:48:09;;;;;;;5.25;3.90;;;26.30;75.90;;;;;;5063374;28;20036;-44
2021/12/30 08:50:37;;;;;;;7.00;4.43;;;26.40;76.10;;;;;;5063586;28;20017;-48
2021/12/30 08:53:04;;;;;;;8.13;4.28;;;26.30;76.10;;;;;;5063426;28;20020;-45
2021/12/30 08:55:30;;;;;;;7.68;4.43;;;26.30;76.10;;;;;;5063326;28;20371;-44
2021/12/30 08:57:57;;;;;;;4.30;3.83;;;26.30;76.10;;;;;;5063393;28;20021;-48
2021/12/30 09:00:27;;;;;;;5.38;4.35;;;26.30;76.20;;;;;;5063357;28;20016;-46
2021/12/30 09:02:56;;;;;;;7.88;4.78;;;26.30;76.20;;;;;;5066441;28;20245;-45
2021/12/30 09:05:24;;;;;;;6.78;5.20;;;26.30;76.20;;;;;;5067136;28;20044;-45
2021/12/30 09:07:52;;;;;;;9.25;5.35;;;26.30;76.30;;;;;;5067075;28;20302;-43
2021/12/30 09:10:20;;;;;;;8.90;4.93;;;26.30;76.20;;;;;;5067053;28;20044;-46
2021/12/30 09:12:48;;;;;;;6.60;4.60;;;26.30;76.20;;;;;;5066899;28;20076;-45
2021/12/30 09:15:16;;;;;;;6.50;4.25;;;26.30;75.90;;;;;;5067494;28;20183;-48
2021/12/30 09:17:45;;;;;;;6.40;4.40;;;26.30;75.70;;;;;;5066993;28;20029;-44
2021/12/30 09:20:13;;;;;;;8.50;4.50;;;26.30;75.70;;;;;;5067338;28;20059;-51
2021/12/30 09:22:40;;;;;;;9.45;3.72;;;26.30;76.00;;;;;;5066751;28;20020;-43
2021/12/30 09:25:10;;;;;;;8.02;3.90;;;26.30;75.20;;;;;;5067185;28;20052;-47
2021/12/30 09:27:39;;;;;;;4.70;4.03;;;26.30;75.20;;;;;;5066702;28;20098;-50
2021/12/30 09:30:09;;;;;;;6.15;4.10;;;26.30;75.40;;;;;;5066844;28;20049;-40
2021/12/30 09:32:36;;;;;;;6.00;4.00;;;26.30;75.40;;;;;;5065229;28;20024;-46
2021/12/30 09:35:03;;;;;;;5.93;4.07;;;26.30;75.40;;;;;;5066895;28;20198;-47
2021/12/30 09:37:30;;;;;;;6.38;3.95;;;26.30;75.50;;;;;;5066486;28;20020;-45
2021/12/30 09:39:58;;;;;;;6.47;3.40;;;26.30;75.70;;;;;;5066997;28;20029;-49
2021/12/30 09:42:26;;;;;;;4.45;3.75;;;26.30;75.60;;;;;;5066481;28;20024;-49
2021/12/30 09:44:53;;;;;;;8.13;4.00;;;26.30;75.60;;;;;;5066616;28;20213;-46
2021/12/30 09:47:20;;;;;;;9.35;4.10;;;26.20;75.50;;;;;;5066380;28;20021;-46
2021/12/30 09:49:50;;;;;;;5.13;3.83;;;26.30;75.70;;;;;;5066873;28;20027;-47
2021/12/30 09:52:17;;;;;;;5.97;3.80;;;26.20;75.70;;;;;;5066117;28;20205;-50
2021/12/30 09:54:43;;;;;;;6.00;3.80;;;26.20;75.90;;;;;;5066703;28;20325;-50
2021/12/30 09:57:10;;;;;;;6.47;3.78;;;26.20;76.20;;;;;;5065061;28;20225;-44
2021/12/30 09:59:37;;;;;;;5.00;4.18;;;26.30;76.30;;;;;;5066416;28;20031;-49
2021/12/30 10:02:04;;;;;;;8.10;4.20;;;26.20;76.40;;;;;;5066180;28;20025;-49
2021/12/30 10:04:33;;;;;;;6.43;3.90;;;26.20;76.60;;;;;;5066335;28;20039;-47
2021/12/30 10:07:02;;;;;;;7.72;4.22;;;26.20;76.80;;;;;;5065894;28;20020;-46
2021/12/30 10:09:49;;;;;;;9.23;4.40;;;26.20;77.00;;;;;;5065904;28;20217;-44
2021/12/30 10:12:35;;;;;;;7.70;4.50;;;26.20;77.00;;;;;;5065386;28;20021;-54
2021/12/30 10:15:01;;;;;;;10.82;4.60;;;26.20;77.00;;;;;;5066321;28;20052;-44
2021/12/30 10:17:29;;;;;;;10.02;4.38;;;26.20;77.00;;;;;;5065555;28;20023;-44
2021/12/30 10:20:14;;;;;;;7.15;4.30;;;26.20;77.00;;;;;;5066144;28;20186;-52
2021/12/30 10:22:41;;;;;;;7.05;4.45;;;26.20;77.00;;;;;;5065545;28;20025;-48
2021/12/30 10:25:32;;;;;;;10.18;4.68;;;26.20;77.00;;;;;;5066077;28;20088;-44
2021/12/30 10:28:26;;;;;;;6.28;4.35;;;26.20;76.80;;;;;;5065427;28;20241;-45
2021/12/30 10:31:01;;;;;;;8.82;5.00;;;26.20;76.60;;;;;;5065396;28;20040;-45
2021/12/30 10:33:29;;;;;;;10.30;5.18;;;26.10;76.40;;;;;;5065627;28;20025;-48
2021/12/30 10:35:57;;;;;;;9.80;5.47;;;26.10;76.20;;;;;;5065445;28;20070;-49
2021/12/30 10:38:29;;;;;;;12.13;5.10;;;26.10;76.40;;;;;;5065396;28;20063;-50
2021/12/30 10:41:01;;;;;;;12.73;6.00;;;26.10;76.40;;;;;;5065406;28;20313;-46
2021/12/30 10:43:37;;;;;;;;;;;26.10;76.40;;;;;;5065760;28;20305;-47
2021/12/30 10:46:05;;;;;;;11.57;5.85;;;26.10;76.30;;;;;;5065112;28;19900;-48
2021/12/30 10:48:33;;;;;;;16.23;6.65;;;26.10;76.40;;;;;;5065261;28;20359;-48
2021/12/30 10:51:15;;;;;;;13.50;6.28;;;26.10;76.20;;;;;;5065125;28;20025;-48
2021/12/30 10:53:42;;;;;;;14.90;6.82;;;26.10;76.40;;;;;;5065299;28;20031;-50
2021/12/30 10:56:34;;;;;;;13.43;6.97;;;26.10;76.10;;;;;;5065050;28;20021;-47
2021/12/30 10:59:14;;;;;;;11.90;6.88;;;26.10;76.00;;;;;;5065271;28;20036;-46
2021/12/30 11:01:53;;;;;;;11.20;6.93;;;26.10;76.00;;;;;;5064769;28;20031;-44
2021/12/30 11:04:21;;;;;;;14.38;7.43;;;26.10;76.00;;;;;;5065148;28;20032;-48
2021/12/30 11:06:54;;;;;;;14.32;9.27;;;26.10;76.00;;;;;;5064748;28;20268;-54
2021/12/30 11:09:20;;;;;;;;;;;26.10;76.20;;;;;;5065492;28;20024;-48
2021/12/30 11:12:06;;;;;;;22.45;15.88;;;26.10;76.10;;;;;;5064843;28;19911;-51
2021/12/30 11:14:36;;;;;;;23.58;17.45;;;26.10;76.40;;;;;;5064882;28;20035;-48
2021/12/30 11:17:17;;;;;;;25.98;18.67;;;26.10;76.60;;;;;;5064401;28;20025;-46
2021/12/30 11:19:51;;;;;;;28.70;19.25;;;26.10;76.80;;;;;;5064976;28;20049;-49
2021/12/30 11:22:24;;;;;;;39.50;20.23;;;26.10;77.10;;;;;;5063608;28;20047;-49
2021/12/30 11:24:56;;;;;;;32.25;23.13;;;26.10;77.30;;;;;;5064019;28;20032;-47
2021/12/30 11:27:24;;;;;;;41.92;25.90;;;26.10;77.30;;;;;;5064383;28;20025;-48
2021/12/30 11:29:54;;;;;;;73.43;49.03;;;26.10;77.20;;;;;;5064696;28;20054;-46
2021/12/30 11:32:23;;;;;;;48.78;31.45;;;26.00;77.80;;;;;;5064297;28;20067;-46
2021/12/30 11:34:51;;;;;;;35.53;21.98;;;26.00;77.80;;;;;;5063866;28;20052;-46
2021/12/30 11:37:19;;;;;;;30.23;18.27;;;26.00;77.70;;;;;;5064029;28;20016;-50
2021/12/30 11:39:52;;;;;;;22.58;15.45;;;26.00;77.70;;;;;;5064668;28;20047;-54
2021/12/30 11:42:26;;;;;;;23.65;14.10;;;26.10;77.90;;;;;;5064238;28;20028;-44
2021/12/30 11:45:02;;;;;;;24.05;12.50;;;26.10;78.00;;;;;;5064275;28;20074;-44
2021/12/30 11:47:34;;;;;;;27.70;12.50;;;26.10;78.10;;;;;;5062347;28;20071;-51
2021/12/30 11:50:09;;;;;;;20.38;11.23;;;26.10;78.20;;;;;;5062174;28;20032;-54
2021/12/30 11:52:46;;;;;;;18.30;10.10;;;26.10;78.20;;;;;;5061860;28;20340;-50
2021/12/30 11:55:49;;;;;;;26.63;10.63;;;26.10;78.20;;;;;;5063510;28;20368;-49
2021/12/30 12:01:12;;;;;;;22.67;10.80;;;26.10;78.10;;;;;;5063396;28;20013;-52
2021/12/30 12:03:41;;;;;;;23.63;11.27;;;26.10;78.00;;;;;;5064027;28;20032;-48
2021/12/30 12:06:27;;;;;;;18.25;11.23;;;26.10;78.00;;;;;;5063889;28;20054;-51
2021/12/30 12:09:00;;;;;;;20.23;11.20;;;26.10;77.90;;;;;;5063384;28;20044;-49
2021/12/30 12:11:40;;;;;;;28.23;11.27;;;26.10;77.90;;;;;;5063023;28;20048;-47
2021/12/30 12:14:19;;;;;;;16.05;10.15;;;26.10;78.10;;;;;;5063450;28;20029;-46
2021/12/30 12:16:59;;;;;;;18.52;9.02;;;26.10;78.20;;;;;;5043840;28;20014;-44
2021/12/30 12:19:37;;;;;;;15.98;9.80;;;26.10;78.00;;;;;;5043932;28;20056;-50
2021/12/30 12:22:07;;;;;;;22.25;11.10;;;26.10;77.90;;;;;;5046941;28;20029;-50
2021/12/30 12:24:39;;;;;;;23.55;15.85;;;26.20;78.10;;;;;;5044016;28;20037;-43
2021/12/30 12:27:10;;;;;;;25.02;14.43;;;26.20;77.90;;;;;;5043505;28;20324;-42
2021/12/30 12:29:45;;;;;;;19.73;11.02;;;26.20;78.00;;;;;;5043826;28;20036;-52
2021/12/30 12:32:14;;;;;;;17.98;11.20;;;26.20;78.10;;;;;;5043515;28;20018;-44
2021/12/30 12:34:56;;;;;;;19.52;10.90;;;26.20;78.10;;;;;;5043885;28;20040;-49
2021/12/30 12:37:39;;;;;;;24.50;15.98;;;26.20;78.20;;;;;;5047502;28;20249;-48
2021/12/30 12:40:13;;;;;;;17.33;11.57;;;26.20;78.20;;;;;;5048058;28;20021;-48
2021/12/30 12:42:52;;;;;;;13.85;9.75;;;26.30;78.30;;;;;;5047412;28;20025;-51
2021/12/30 12:45:50;;;;;;;16.08;10.80;;;26.30;78.30;;;;;;5047667;28;20056;-45
2021/12/30 12:48:17;;;;;;;16.58;10.15;;;26.30;78.30;;;;;;5062010;28;20025;-45
2021/12/30 12:51:01;;;;;;;18.73;10.10;;;26.30;78.30;;;;;;5067533;28;20319;-50
2021/12/30 12:53:27;;;;;;;15.73;9.10;;;26.30;78.30;;;;;;5067395;28;20072;-48
2021/12/30 12:55:57;;;;;;;13.32;8.65;;;26.30;78.30;;;;;;5067387;28;20202;-52